createdAt,value
2018-03-24T00:01:52.584Z,6.20
2018-03-24T00:04:18.757Z,6.30
2018-03-24T00:06:45.572Z,6.20
2018-03-24T00:09:12.469Z,6.20
2018-03-24T00:11:38.674Z,6.20
2018-03-24T00:14:05.559Z,6.30
2018-03-24T00:16:31.709Z,6.20
2018-03-24T00:18:57.788Z,6.30
2018-03-24T00:21:23.964Z,6.30
2018-03-24T00:23:50.048Z,6.20
2018-03-24T00:26:16.221Z,6.20
2018-03-24T00:28:42.404Z,6.20
2018-03-24T00:31:09.270Z,6.20
2018-03-24T00:33:36.502Z,6.20
2018-03-24T00:36:03.363Z,6.20
2018-03-24T00:38:30.332Z,6.20
2018-03-24T00:40:57.559Z,6.20
2018-03-24T00:43:23.583Z,6.20
2018-03-24T00:45:50.281Z,6.20
2018-03-24T00:48:17.501Z,6.30
2018-03-24T00:50:44.397Z,6.30
2018-03-24T00:53:10.575Z,6.30
2018-03-24T00:55:36.680Z,6.40
2018-03-24T00:58:02.824Z,6.40
2018-03-24T01:00:29.960Z,6.30
2018-03-24T01:02:56.334Z,6.30
2018-03-24T01:05:23.197Z,6.20
2018-03-24T01:07:49.756Z,6.20
2018-03-24T01:10:16.062Z,6.30
2018-03-24T01:12:43.042Z,6.30
2018-03-24T01:15:09.190Z,6.30
2018-03-24T01:17:35.266Z,6.30
2018-03-24T01:20:01.413Z,6.30
2018-03-24T01:22:28.269Z,6.30
2018-03-24T01:24:55.362Z,6.20
2018-03-24T01:27:21.504Z,6.30
2018-03-24T01:29:47.765Z,6.30
2018-03-24T01:32:13.889Z,6.30
2018-03-24T01:34:40.035Z,6.30
2018-03-24T01:37:06.968Z,6.40
2018-03-24T01:39:33.110Z,6.40
2018-03-24T01:42:00.047Z,6.40
2018-03-24T01:44:26.190Z,6.30
2018-03-24T01:46:53.067Z,6.30
2018-03-24T01:49:19.859Z,6.10
2018-03-24T01:51:45.950Z,6.10
2018-03-24T01:54:12.132Z,6.10
2018-03-24T01:56:38.330Z,6.10
2018-03-24T01:59:04.558Z,6.00
2018-03-24T02:01:30.804Z,6.00
2018-03-24T02:03:57.126Z,6.00
2018-03-24T02:06:23.260Z,6.00
2018-03-24T02:08:49.359Z,6.00
2018-03-24T02:11:16.293Z,5.90
2018-03-24T02:13:43.482Z,5.90
2018-03-24T02:16:09.729Z,5.90
2018-03-24T02:18:35.771Z,5.90
2018-03-24T02:21:05.826Z,5.80
2018-03-24T02:23:32.029Z,5.70
2018-03-24T02:26:05.316Z,5.70
2018-03-24T02:28:31.473Z,5.70
2018-03-24T02:30:57.675Z,5.70
2018-03-24T02:33:23.759Z,5.70
2018-03-24T02:35:49.969Z,5.70
2018-03-24T02:38:16.099Z,5.70
2018-03-24T02:40:42.429Z,5.60
2018-03-24T02:43:08.538Z,5.60
2018-03-24T02:45:34.970Z,5.40
2018-03-24T02:48:01.107Z,5.30
2018-03-24T02:50:27.209Z,5.20
2018-03-24T02:52:53.379Z,5.10
2018-03-24T02:55:20.436Z,5.10
2018-03-24T02:57:46.553Z,5.10
2018-03-24T03:00:13.286Z,5.00
2018-03-24T03:02:40.221Z,5.10
2018-03-24T03:05:07.056Z,5.00
2018-03-24T03:07:33.154Z,5.00
2018-03-24T03:09:59.410Z,5.20
2018-03-24T03:12:25.930Z,5.20
2018-03-24T03:14:52.092Z,5.20
2018-03-24T03:17:19.611Z,5.20
2018-03-24T03:19:45.669Z,5.20
2018-03-24T03:22:12.425Z,5.10
2018-03-24T03:24:38.523Z,5.10
2018-03-24T03:27:04.649Z,5.00
2018-03-24T03:29:30.773Z,5.00
2018-03-24T03:32:10.802Z,4.90
2018-03-24T03:34:37.134Z,4.90
2018-03-24T03:37:03.405Z,5.00
2018-03-24T03:39:29.514Z,5.00
2018-03-24T03:41:56.392Z,4.80
2018-03-24T03:44:22.426Z,4.70
2018-03-24T03:46:48.530Z,4.70
2018-03-24T03:49:14.619Z,4.70
2018-03-24T03:51:42.432Z,4.70
2018-03-24T03:54:08.572Z,4.70
2018-03-24T03:56:34.651Z,4.70
2018-03-24T03:59:00.846Z,4.70
2018-03-24T04:01:26.898Z,4.60
2018-03-24T04:03:53.763Z,4.60
2018-03-24T04:06:19.827Z,4.50
2018-03-24T04:08:45.872Z,4.60
2018-03-24T04:11:12.041Z,4.60
2018-03-24T04:13:38.168Z,4.50
2018-03-24T04:16:04.242Z,4.40
2018-03-24T04:18:30.546Z,4.30
2018-03-24T04:20:57.162Z,4.30
2018-03-24T04:23:24.094Z,4.20
2018-03-24T04:25:50.247Z,4.10
2018-03-24T04:28:17.287Z,4.30
2018-03-24T04:30:43.482Z,4.20
2018-03-24T04:33:10.146Z,4.20
2018-03-24T04:35:36.243Z,4.20
2018-03-24T04:38:03.182Z,4.10
2018-03-24T04:40:29.284Z,4.10
2018-03-24T04:42:55.365Z,4.10
2018-03-24T04:45:22.244Z,4.10
2018-03-24T04:47:48.390Z,4.00
2018-03-24T04:50:14.540Z,4.00
2018-03-24T04:52:40.554Z,4.00
2018-03-24T04:55:06.730Z,4.00
2018-03-24T04:57:33.777Z,3.90
2018-03-24T05:00:00.106Z,3.90
2018-03-24T05:02:26.394Z,3.90
2018-03-24T05:04:53.269Z,3.90
2018-03-24T05:07:19.407Z,3.80
2018-03-24T05:09:45.520Z,3.90
2018-03-24T05:12:11.699Z,3.90
2018-03-24T05:14:38.533Z,3.90
2018-03-24T05:17:05.002Z,3.80
2018-03-24T05:19:31.150Z,3.90
2018-03-24T05:21:57.282Z,3.80
2018-03-24T05:24:23.379Z,3.80
2018-03-24T05:26:49.438Z,3.80
2018-03-24T05:29:16.375Z,4.00
2018-03-24T05:31:42.762Z,4.00
2018-03-24T05:34:08.887Z,3.80
2018-03-24T05:36:35.174Z,3.80
2018-03-24T05:39:02.527Z,3.70
2018-03-24T05:41:28.644Z,3.70
2018-03-24T05:43:55.207Z,3.80
2018-03-24T05:46:22.204Z,3.90
2018-03-24T05:48:48.233Z,3.90
2018-03-24T05:51:14.347Z,3.90
2018-03-24T05:53:41.452Z,3.90
2018-03-24T05:56:07.771Z,3.80
2018-03-24T05:58:33.907Z,4.00
2018-03-24T06:01:00.087Z,4.00
2018-03-24T06:03:26.230Z,4.00
2018-03-24T06:05:53.205Z,3.90
2018-03-24T06:08:20.037Z,3.90
2018-03-24T06:10:46.140Z,3.90
2018-03-24T06:13:12.155Z,3.90
2018-03-24T06:15:38.948Z,4.10
2018-03-24T06:18:05.321Z,4.10
2018-03-24T06:20:32.440Z,4.00
2018-03-24T06:22:58.526Z,3.90
2018-03-24T06:25:24.656Z,3.90
2018-03-24T06:27:51.486Z,4.00
2018-03-24T06:30:17.648Z,3.90
2018-03-24T06:32:44.486Z,4.00
2018-03-24T06:35:11.717Z,3.90
2018-03-24T06:37:37.799Z,3.90
2018-03-24T06:40:03.939Z,3.90
2018-03-24T06:42:30.055Z,4.00
2018-03-24T06:44:56.260Z,4.10
2018-03-24T06:47:22.593Z,4.10
2018-03-24T06:49:48.702Z,4.20
2018-03-24T06:52:15.452Z,4.30
2018-03-24T06:54:41.626Z,4.30
2018-03-24T06:57:08.954Z,4.40
2018-03-24T06:59:35.044Z,4.30
2018-03-24T07:02:01.206Z,4.30
2018-03-24T07:04:27.469Z,4.40
2018-03-24T07:06:56.477Z,4.40
2018-03-24T07:09:23.352Z,4.40
2018-03-24T07:11:49.509Z,4.40
2018-03-24T07:14:15.633Z,4.30
2018-03-24T07:16:41.723Z,4.30
2018-03-24T07:19:08.626Z,4.20
2018-03-24T07:21:34.762Z,4.10
2018-03-24T07:24:00.946Z,4.20
2018-03-24T07:26:27.837Z,4.20
2018-03-24T07:28:54.046Z,4.10
2018-03-24T07:31:21.201Z,4.30
2018-03-24T07:33:48.260Z,4.40
2018-03-24T07:36:14.431Z,4.50
2018-03-24T07:38:41.041Z,4.50
2018-03-24T07:41:07.381Z,4.60
2018-03-24T07:43:33.485Z,4.60
2018-03-24T07:45:59.571Z,4.80
2018-03-24T07:48:26.552Z,5.20
2018-03-24T07:50:53.510Z,5.30
2018-03-24T07:53:21.387Z,5.40
2018-03-24T07:55:48.208Z,5.50
2018-03-24T07:58:14.385Z,5.50
2018-03-24T08:00:40.575Z,5.60
2018-03-24T08:03:06.783Z,5.70
2018-03-24T08:05:33.406Z,5.80
2018-03-24T08:07:59.663Z,6.00
2018-03-24T08:10:27.067Z,6.10
2018-03-24T08:12:53.199Z,6.00
2018-03-24T08:15:19.633Z,6.10
2018-03-24T08:17:45.862Z,6.30
2018-03-24T08:20:12.796Z,6.50
2018-03-24T08:22:39.688Z,6.60
2018-03-24T08:25:05.837Z,6.60
2018-03-24T08:27:32.065Z,6.50
2018-03-24T08:29:58.210Z,6.60
2018-03-24T08:32:24.819Z,6.70
2018-03-24T08:34:50.936Z,6.70
2018-03-24T08:37:17.812Z,6.80
2018-03-24T08:39:44.339Z,6.80
2018-03-24T08:42:10.924Z,6.90
2018-03-24T08:44:37.907Z,7.00
2018-03-24T08:47:05.432Z,7.20
2018-03-24T08:49:31.953Z,7.30
2018-03-24T08:51:58.906Z,7.50
2018-03-24T08:54:25.035Z,7.40
2018-03-24T08:56:51.137Z,7.60
2018-03-24T08:59:17.971Z,7.40
2018-03-24T09:01:45.330Z,7.40
2018-03-24T09:04:11.700Z,7.50
2018-03-24T09:06:37.862Z,7.50
2018-03-24T09:09:04.317Z,7.60
2018-03-24T09:11:30.592Z,7.70
2018-03-24T09:13:56.741Z,7.80
2018-03-24T09:16:24.733Z,7.80
2018-03-24T09:18:51.720Z,7.90
2018-03-24T09:21:17.875Z,8.10
2018-03-24T09:23:44.751Z,8.20
2018-03-24T09:26:10.872Z,8.10
2018-03-24T09:28:37.007Z,8.30
2018-03-24T09:31:03.145Z,8.40
2018-03-24T09:33:29.308Z,8.50
2018-03-24T09:35:57.006Z,8.50
2018-03-24T09:38:23.301Z,8.40
2018-03-24T09:40:49.732Z,8.40
2018-03-24T09:43:16.777Z,8.40
2018-03-24T09:45:43.972Z,8.50
2018-03-24T09:48:10.106Z,8.50
2018-03-24T09:50:36.334Z,8.70
2018-03-24T09:53:02.539Z,8.90
2018-03-24T09:55:28.688Z,9.00
2018-03-24T09:57:54.710Z,9.10
2018-03-24T10:00:20.743Z,9.20
2018-03-24T10:02:46.856Z,9.30
2018-03-24T10:05:13.156Z,9.40
2018-03-24T10:07:39.171Z,9.60
2018-03-24T10:10:06.094Z,9.80
2018-03-24T10:12:32.532Z,9.70
2018-03-24T10:14:58.731Z,9.70
2018-03-24T10:17:25.248Z,9.60
2018-03-24T10:19:51.383Z,9.60
2018-03-24T10:25:26.666Z,10.20
2018-03-24T10:27:53.322Z,10.20
2018-03-24T10:30:19.414Z,10.30
2018-03-24T10:32:45.548Z,10.60
2018-03-24T10:35:11.721Z,10.80
2018-03-24T10:37:44.500Z,11.00
2018-03-24T10:40:11.496Z,10.90
2018-03-24T10:42:38.462Z,11.00
2018-03-24T10:45:04.626Z,11.00
2018-03-24T10:47:30.797Z,11.20
2018-03-24T10:49:57.747Z,11.30
2018-03-24T10:52:24.267Z,11.20
2018-03-24T10:54:50.862Z,11.40
2018-03-24T10:57:17.112Z,11.40
2018-03-24T10:59:44.107Z,11.50
2018-03-24T11:02:10.212Z,11.50
2018-03-24T11:04:36.303Z,11.60
2018-03-24T11:07:02.604Z,11.60
2018-03-24T11:09:28.811Z,11.60
2018-03-24T11:11:55.150Z,11.70
2018-03-24T11:14:21.558Z,11.80
2018-03-24T11:16:48.830Z,11.80
2018-03-24T11:19:15.046Z,11.90
2018-03-24T11:21:42.508Z,12.10
2018-03-24T11:24:08.593Z,12.20
2018-03-24T11:26:34.780Z,12.30
2018-03-24T11:29:00.879Z,12.20
2018-03-24T11:31:27.757Z,12.00
2018-03-24T11:33:54.994Z,11.90
2018-03-24T11:36:21.156Z,11.90
2018-03-24T11:38:47.227Z,11.70
2018-03-24T11:41:13.432Z,11.70
2018-03-24T11:43:39.547Z,11.70
2018-03-24T11:46:06.637Z,11.50
2018-03-24T11:48:33.684Z,11.40
2018-03-24T11:51:00.454Z,11.40
2018-03-24T11:53:39.675Z,11.90
2018-03-24T11:56:05.867Z,11.80
2018-03-24T11:58:32.166Z,11.80
2018-03-24T12:00:58.345Z,11.80
2018-03-24T12:03:24.577Z,11.70
2018-03-24T12:05:51.773Z,11.80
2018-03-24T12:08:18.079Z,12.00
2018-03-24T12:10:44.243Z,12.00
2018-03-24T12:13:10.343Z,11.90
2018-03-24T12:15:37.315Z,11.80
2018-03-24T12:18:05.736Z,11.70
2018-03-24T12:20:33.547Z,11.70
2018-03-24T12:22:59.927Z,11.60
2018-03-24T12:25:26.006Z,11.50
2018-03-24T12:27:52.541Z,11.40
2018-03-24T12:30:20.634Z,11.10
2018-03-24T12:32:46.896Z,10.80
2018-03-24T12:35:13.120Z,10.70
2018-03-24T12:37:39.649Z,10.80
2018-03-24T12:40:05.892Z,11.00
2018-03-24T12:42:31.999Z,11.10
2018-03-24T12:44:58.249Z,11.30
2018-03-24T12:47:24.773Z,11.50
2018-03-24T12:49:51.078Z,11.70
2018-03-24T12:52:17.319Z,11.90
2018-03-24T12:54:44.188Z,11.90
2018-03-24T12:57:10.289Z,12.20
2018-03-24T12:59:38.097Z,13.30
2018-03-24T13:02:04.740Z,13.30
2018-03-24T13:04:30.848Z,13.70
2018-03-24T13:06:57.384Z,13.90
2018-03-24T13:09:24.425Z,14.00
2018-03-24T13:11:50.751Z,14.20
2018-03-24T13:14:17.602Z,14.00
2018-03-24T13:16:44.450Z,13.70
2018-03-24T13:19:11.346Z,13.50
2018-03-24T13:21:37.515Z,13.50
2018-03-24T13:24:03.871Z,13.50
2018-03-24T13:26:30.694Z,14.00
2018-03-24T13:28:56.907Z,13.90
2018-03-24T13:31:23.782Z,14.20
2018-03-24T13:33:50.423Z,14.40
2018-03-24T13:36:16.709Z,14.50
2018-03-24T13:38:42.997Z,14.70
2018-03-24T13:41:10.319Z,15.20
2018-03-24T13:43:36.679Z,15.30
2018-03-24T13:46:02.852Z,15.30
2018-03-24T13:48:29.777Z,15.80
2018-03-24T13:50:57.605Z,15.70
2018-03-24T13:53:24.755Z,15.60
2018-03-24T13:55:50.915Z,15.50
2018-03-24T13:58:17.047Z,15.00
2018-03-24T14:00:43.993Z,14.50
2018-03-24T14:03:10.157Z,14.50
2018-03-24T14:05:36.438Z,14.50
2018-03-24T14:08:03.544Z,14.50
2018-03-24T14:10:30.863Z,14.30
2018-03-24T14:12:57.416Z,14.30
2018-03-24T14:15:25.006Z,14.80
2018-03-24T14:17:52.124Z,15.50
2018-03-24T14:20:21.469Z,15.40
2018-03-24T14:22:50.306Z,15.50
2018-03-24T14:25:17.171Z,15.60
2018-03-24T14:27:43.322Z,15.80
2018-03-24T14:30:10.571Z,15.90
2018-03-24T14:32:37.305Z,16.10
2018-03-24T14:35:05.299Z,16.10
2018-03-24T14:37:32.478Z,15.80
2018-03-24T14:39:59.603Z,15.80
2018-03-24T14:42:27.707Z,15.60
2018-03-24T14:44:53.930Z,15.50
2018-03-24T14:47:21.450Z,15.80
2018-03-24T14:49:47.615Z,16.10
2018-03-24T14:52:14.095Z,16.40
2018-03-24T14:54:40.414Z,16.70
2018-03-24T14:57:08.189Z,17.00
2018-03-24T14:59:35.328Z,17.10
2018-03-24T15:02:02.345Z,17.30
2018-03-24T15:04:28.874Z,17.20
2018-03-24T15:06:55.109Z,17.20
2018-03-24T15:09:21.242Z,17.00
2018-03-24T15:11:47.904Z,17.10
2018-03-24T15:14:14.126Z,16.80
2018-03-24T15:16:40.356Z,16.80
2018-03-24T15:19:06.511Z,16.90
2018-03-24T15:21:32.698Z,16.90
2018-03-24T15:23:59.746Z,16.80
2018-03-24T15:26:25.988Z,16.60
2018-03-24T15:29:05.369Z,16.70
2018-03-24T15:31:46.058Z,16.90
2018-03-24T15:34:26.056Z,17.00
2018-03-24T15:36:52.294Z,17.00
2018-03-24T15:39:18.493Z,17.00
2018-03-24T15:41:45.136Z,16.90
2018-03-24T15:44:11.355Z,16.90
2018-03-24T15:46:37.612Z,17.00
2018-03-24T15:49:03.855Z,17.20
2018-03-24T15:51:30.051Z,17.20
2018-03-24T15:53:56.989Z,17.10
2018-03-24T15:56:24.007Z,17.10
2018-03-24T15:58:50.274Z,17.10
2018-03-24T16:01:16.503Z,17.10
2018-03-24T16:03:42.855Z,17.20
2018-03-24T16:06:09.084Z,17.20
2018-03-24T16:08:35.284Z,17.30
2018-03-24T16:11:01.545Z,17.40
2018-03-24T16:13:28.770Z,17.50
2018-03-24T16:15:54.891Z,17.50
2018-03-24T16:18:22.072Z,17.50
2018-03-24T16:20:48.711Z,17.20
2018-03-24T16:23:14.941Z,17.10
2018-03-24T16:25:41.057Z,17.10
2018-03-24T16:28:07.510Z,17.20
2018-03-24T16:30:34.509Z,17.30
2018-03-24T16:33:01.874Z,17.10
2018-03-24T16:35:28.751Z,16.90
2018-03-24T16:37:56.220Z,16.90
2018-03-24T16:40:24.657Z,17.00
2018-03-24T16:42:51.613Z,17.10
2018-03-24T16:45:18.961Z,17.10
2018-03-24T16:47:45.935Z,17.10
2018-03-24T16:50:13.036Z,17.00
2018-03-24T16:52:39.824Z,17.00
2018-03-24T16:55:07.132Z,17.10
2018-03-24T16:57:36.078Z,17.20
2018-03-24T17:00:03.850Z,17.20
2018-03-24T17:02:29.907Z,17.10
2018-03-24T17:04:56.498Z,17.00
2018-03-24T17:07:22.815Z,16.70
2018-03-24T17:09:49.008Z,16.60
2018-03-24T17:12:15.892Z,16.50
2018-03-24T17:14:42.444Z,16.50
2018-03-24T17:17:08.658Z,16.70
2018-03-24T17:19:34.902Z,16.70
2018-03-24T17:22:01.111Z,16.70
2018-03-24T17:24:27.417Z,16.60
2018-03-24T17:26:54.001Z,15.90
2018-03-24T17:29:20.371Z,15.20
2018-03-24T17:31:47.762Z,14.40
2018-03-24T17:34:15.141Z,14.10
2018-03-24T17:36:42.087Z,14.00
2018-03-24T17:39:08.390Z,13.80
2018-03-24T17:41:36.238Z,13.50
2018-03-24T17:44:02.833Z,13.40
2018-03-24T17:46:29.737Z,13.20
2018-03-24T17:48:56.658Z,13.10
2018-03-24T17:51:23.023Z,13.20
2018-03-24T17:53:51.068Z,13.10
2018-03-24T17:56:18.162Z,13.00
2018-03-24T17:58:44.554Z,12.80
2018-03-24T18:01:10.676Z,12.80
2018-03-24T18:03:37.823Z,12.60
2018-03-24T18:06:04.979Z,12.50
2018-03-24T18:08:31.131Z,12.40
2018-03-24T18:10:57.584Z,12.30
2018-03-24T18:13:24.004Z,12.30
2018-03-24T18:15:50.330Z,12.30
2018-03-24T18:18:16.522Z,12.20
2018-03-24T18:20:44.221Z,12.00
2018-03-24T18:23:10.346Z,12.00
2018-03-24T18:25:37.292Z,11.90
2018-03-24T18:28:04.776Z,11.80
2018-03-24T18:30:31.108Z,11.80
2018-03-24T18:32:57.374Z,11.70
2018-03-24T18:35:23.496Z,11.70
2018-03-24T18:37:49.623Z,11.60
2018-03-24T18:40:15.785Z,11.50
2018-03-24T18:42:42.442Z,11.40
2018-03-24T18:45:09.458Z,11.40
2018-03-24T18:47:36.176Z,11.40
2018-03-24T18:50:02.453Z,11.30
2018-03-24T18:52:28.594Z,11.20
2018-03-24T18:54:54.794Z,11.20
2018-03-24T18:57:20.963Z,11.30
2018-03-24T18:59:47.157Z,11.20
2018-03-24T19:02:13.709Z,11.10
2018-03-24T19:04:40.639Z,10.70
2018-03-24T19:07:06.845Z,10.60
2018-03-24T19:09:33.639Z,10.50
2018-03-24T19:11:59.809Z,10.40
2018-03-24T19:14:27.577Z,10.30
2018-03-24T19:16:55.021Z,10.20
2018-03-24T19:19:21.380Z,10.10
2018-03-24T19:21:48.324Z,10.10
2018-03-24T19:24:14.464Z,10.00
2018-03-24T19:26:41.286Z,9.80
2018-03-24T19:29:07.613Z,9.80
2018-03-24T19:31:35.210Z,9.80
2018-03-24T19:34:02.964Z,9.60
2018-03-24T19:36:29.431Z,9.60
2018-03-24T19:38:56.214Z,9.60
2018-03-24T19:41:22.302Z,9.50
2018-03-24T19:43:49.475Z,9.50
2018-03-24T19:46:16.493Z,9.40
2018-03-24T19:48:42.593Z,9.40
2018-03-24T19:51:09.785Z,9.40
2018-03-24T19:53:35.943Z,9.30
2018-03-24T19:56:02.063Z,9.30
2018-03-24T19:58:28.773Z,9.30
2018-03-24T20:00:54.913Z,9.20
2018-03-24T20:03:21.017Z,9.20
2018-03-24T20:05:47.830Z,9.20
2018-03-24T20:08:14.032Z,9.20
2018-03-24T20:10:40.154Z,9.30
2018-03-24T20:13:06.675Z,9.20
2018-03-24T20:15:33.503Z,9.10
2018-03-24T20:17:59.574Z,9.00
2018-03-24T20:20:26.051Z,9.00
2018-03-24T20:22:52.968Z,9.00
2018-03-24T20:25:19.062Z,8.90
2018-03-24T20:27:45.239Z,9.00
2018-03-24T20:30:11.417Z,9.00
2018-03-24T20:32:37.629Z,8.90
2018-03-24T20:35:04.597Z,8.90
2018-03-24T20:37:31.656Z,8.80
2018-03-24T20:39:57.760Z,8.80
2018-03-24T20:42:24.196Z,8.70
2018-03-24T20:44:50.223Z,8.70
2018-03-24T20:47:17.293Z,8.60
2018-03-24T20:49:43.407Z,8.50
2018-03-24T20:52:09.639Z,8.50
2018-03-24T20:54:36.281Z,8.50
2018-03-24T20:57:02.596Z,8.40
2018-03-24T20:59:28.747Z,8.40
2018-03-24T21:01:56.478Z,8.30
2018-03-24T21:04:22.600Z,8.20
2018-03-24T21:06:48.746Z,8.20
2018-03-24T21:09:14.898Z,8.20
2018-03-24T21:11:40.939Z,8.10
2018-03-24T21:14:08.173Z,8.00
2018-03-24T21:16:34.305Z,7.90
2018-03-24T21:19:00.523Z,7.90
2018-03-24T21:21:26.757Z,7.80
2018-03-24T21:23:53.142Z,7.70
2018-03-24T21:26:20.824Z,7.60
2018-03-24T21:28:47.855Z,7.50
2018-03-24T21:31:15.302Z,7.50
2018-03-24T21:33:42.057Z,7.40
2018-03-24T21:36:11.013Z,7.30
2018-03-24T21:38:37.380Z,7.30
2018-03-24T21:41:03.934Z,7.20
2018-03-24T21:43:30.833Z,7.20
2018-03-24T21:45:57.068Z,7.10
2018-03-24T21:48:23.480Z,7.10
2018-03-24T21:50:49.726Z,7.10
2018-03-24T21:53:15.861Z,7.10
2018-03-24T21:55:42.175Z,7.10
2018-03-24T21:58:08.382Z,7.10
2018-03-24T22:00:34.556Z,7.10
2018-03-24T22:03:00.679Z,7.00
2018-03-24T22:05:26.920Z,6.90
2018-03-24T22:07:53.803Z,6.80
2018-03-24T22:10:21.138Z,6.70
2018-03-24T22:12:47.292Z,6.70
2018-03-24T22:15:13.413Z,6.70
2018-03-24T22:17:39.591Z,6.70
2018-03-24T22:20:06.619Z,6.70
2018-03-24T22:22:32.752Z,6.80
2018-03-24T22:24:59.250Z,6.80
2018-03-24T22:27:25.742Z,6.80
2018-03-24T22:29:51.807Z,6.90
2018-03-24T22:32:18.591Z,6.80
2018-03-24T22:34:45.675Z,6.80
2018-03-24T22:37:11.726Z,6.70
2018-03-24T22:39:38.881Z,6.70
2018-03-24T22:42:05.919Z,6.70
2018-03-24T22:44:32.899Z,6.70
2018-03-24T22:46:59.818Z,6.70
2018-03-24T22:49:26.283Z,6.70
2018-03-24T22:51:53.204Z,6.70
2018-03-24T22:54:19.257Z,6.60
2018-03-24T22:56:46.280Z,6.70
2018-03-24T22:59:12.661Z,6.60
2018-03-24T23:01:39.536Z,6.50
2018-03-24T23:04:05.686Z,6.40
2018-03-24T23:06:31.720Z,6.40
2018-03-24T23:08:57.784Z,6.40
2018-03-24T23:11:24.403Z,6.40
2018-03-24T23:13:50.429Z,6.30
2018-03-24T23:16:16.732Z,6.30
2018-03-24T23:18:43.701Z,6.20
2018-03-24T23:21:09.815Z,6.30
2018-03-24T23:23:36.065Z,6.30
2018-03-24T23:26:02.373Z,6.40
2018-03-24T23:28:28.566Z,6.30
2018-03-24T23:30:54.646Z,6.20
2018-03-24T23:33:20.774Z,6.10
2018-03-24T23:35:46.902Z,6.00
2018-03-24T23:38:12.925Z,6.00
2018-03-24T23:40:39.055Z,6.00
2018-03-24T23:43:05.170Z,6.10
2018-03-24T23:45:31.959Z,6.00
2018-03-24T23:47:58.032Z,5.90
2018-03-24T23:50:24.139Z,5.90
2018-03-24T23:52:51.315Z,5.80
2018-03-24T23:55:17.440Z,5.80
2018-03-24T23:57:43.569Z,5.80
